sensor_id;sensor_type;location;lat;lon;timestamp;P1;durP1;ratioP1;P2;durP2;ratioP2
1603;SDS011;795;49.296;11.348;2023-03-23T00:00:09;4.40;;;4.00;;
1603;SDS011;795;49.296;11.348;2023-03-23T00:02:36;4.10;;;3.80;;
1603;SDS011;795;49.296;11.348;2023-03-23T00:05:03;4.40;;;3.97;;
1603;SDS011;795;49.296;11.348;2023-03-23T00:07:32;3.93;;;3.63;;
1603;SDS011;795;49.296;11.348;2023-03-23T00:10:00;4.77;;;4.33;;
1603;SDS011;795;49.296;11.348;2023-03-23T00:12:27;4.40;;;3.80;;
1603;SDS011;795;49.296;11.348;2023-03-23T00:15:03;4.33;;;3.70;;
1603;SDS011;795;49.296;11.348;2023-03-23T00:17:33;4.63;;;3.63;;
1603;SDS011;795;49.296;11.348;2023-03-23T00:20:00;4.00;;;3.70;;
1603;SDS011;795;49.296;11.348;2023-03-23T00:22:30;3.67;;;3.20;;
1603;SDS011;795;49.296;11.348;2023-03-23T00:25:02;4.67;;;3.33;;
1603;SDS011;795;49.296;11.348;2023-03-23T00:27:31;6.60;;;3.43;;
1603;SDS011;795;49.296;11.348;2023-03-23T00:29:57;4.10;;;3.70;;
1603;SDS011;795;49.296;11.348;2023-03-23T00:32:23;4.33;;;3.47;;
1603;SDS011;795;49.296;11.348;2023-03-23T00:34:55;4.10;;;3.60;;
1603;SDS011;795;49.296;11.348;2023-03-23T00:37:25;4.97;;;3.87;;
1603;SDS011;795;49.296;11.348;2023-03-23T00:39:52;4.70;;;3.83;;
1603;SDS011;795;49.296;11.348;2023-03-23T00:42:22;4.73;;;4.23;;
1603;SDS011;795;49.296;11.348;2023-03-23T00:44:50;3.90;;;3.60;;
1603;SDS011;795;49.296;11.348;2023-03-23T00:47:18;4.60;;;3.73;;
1603;SDS011;795;49.296;11.348;2023-03-23T00:49:45;3.83;;;3.43;;
1603;SDS011;795;49.296;11.348;2023-03-23T00:52:13;4.60;;;4.13;;
1603;SDS011;795;49.296;11.348;2023-03-23T00:54:39;4.47;;;4.00;;
1603;SDS011;795;49.296;11.348;2023-03-23T00:57:05;4.33;;;3.43;;
1603;SDS011;795;49.296;11.348;2023-03-23T00:59:31;4.37;;;3.87;;
1603;SDS011;795;49.296;11.348;2023-03-23T01:01:57;3.63;;;3.17;;
1603;SDS011;795;49.296;11.348;2023-03-23T01:04:23;4.00;;;3.60;;
1603;SDS011;795;49.296;11.348;2023-03-23T01:06:49;3.50;;;3.10;;
1603;SDS011;795;49.296;11.348;2023-03-23T01:09:17;4.23;;;3.90;;
1603;SDS011;795;49.296;11.348;2023-03-23T01:11:46;3.50;;;3.20;;
1603;SDS011;795;49.296;11.348;2023-03-23T01:14:16;4.90;;;3.20;;
1603;SDS011;795;49.296;11.348;2023-03-23T01:16:44;7.77;;;3.97;;
1603;SDS011;795;49.296;11.348;2023-03-23T01:19:10;3.50;;;3.20;;
1603;SDS011;795;49.296;11.348;2023-03-23T01:21:37;5.87;;;3.63;;
1603;SDS011;795;49.296;11.348;2023-03-23T01:24:03;3.93;;;3.50;;
1603;SDS011;795;49.296;11.348;2023-03-23T01:26:30;3.57;;;3.23;;
1603;SDS011;795;49.296;11.348;2023-03-23T01:28:56;4.50;;;2.93;;
1603;SDS011;795;49.296;11.348;2023-03-23T01:31:22;3.17;;;2.93;;
1603;SDS011;795;49.296;11.348;2023-03-23T01:33:51;3.07;;;2.77;;
1603;SDS011;795;49.296;11.348;2023-03-23T01:36:20;4.13;;;2.90;;
1603;SDS011;795;49.296;11.348;2023-03-23T01:38:53;2.73;;;2.53;;
1603;SDS011;795;49.296;11.348;2023-03-23T01:41:20;3.40;;;3.13;;
1603;SDS011;795;49.296;11.348;2023-03-23T01:46:35;3.40;;;3.10;;
1603;SDS011;795;49.296;11.348;2023-03-23T01:49:03;3.10;;;2.80;;
1603;SDS011;795;49.296;11.348;2023-03-23T01:51:57;3.57;;;3.03;;
1603;SDS011;795;49.296;11.348;2023-03-23T01:54:35;3.37;;;3.07;;
1603;SDS011;795;49.296;11.348;2023-03-23T01:57:09;3.03;;;2.77;;
1603;SDS011;795;49.296;11.348;2023-03-23T01:59:42;6.43;;;3.67;;
1603;SDS011;795;49.296;11.348;2023-03-23T02:02:16;3.00;;;2.80;;
1603;SDS011;795;49.296;11.348;2023-03-23T02:04:46;3.20;;;2.80;;
1603;SDS011;795;49.296;11.348;2023-03-23T02:07:12;8.13;;;3.33;;
1603;SDS011;795;49.296;11.348;2023-03-23T02:09:45;2.80;;;2.57;;
1603;SDS011;795;49.296;11.348;2023-03-23T02:12:11;2.57;;;2.33;;
1603;SDS011;795;49.296;11.348;2023-03-23T02:14:37;3.33;;;2.73;;
1603;SDS011;795;49.296;11.348;2023-03-23T02:17:11;3.17;;;2.80;;
1603;SDS011;795;49.296;11.348;2023-03-23T02:20:13;2.57;;;2.37;;
1603;SDS011;795;49.296;11.348;2023-03-23T02:32:07;7.93;;;2.40;;
1603;SDS011;795;49.296;11.348;2023-03-23T02:34:57;5.40;;;2.03;;
1603;SDS011;795;49.296;11.348;2023-03-23T02:40:46;2.37;;;2.17;;
1603;SDS011;795;49.296;11.348;2023-03-23T02:43:20;3.03;;;2.73;;
1603;SDS011;795;49.296;11.348;2023-03-23T02:45:52;3.90;;;2.43;;
1603;SDS011;795;49.296;11.348;2023-03-23T02:48:22;3.07;;;2.80;;
1603;SDS011;795;49.296;11.348;2023-03-23T02:50:55;3.17;;;2.57;;
1603;SDS011;795;49.296;11.348;2023-03-23T02:53:25;3.00;;;2.70;;
1603;SDS011;795;49.296;11.348;2023-03-23T02:55:55;6.03;;;2.47;;
1603;SDS011;795;49.296;11.348;2023-03-23T02:58:24;3.47;;;2.60;;
1603;SDS011;795;49.296;11.348;2023-03-23T03:00:50;2.70;;;2.50;;
1603;SDS011;795;49.296;11.348;2023-03-23T03:03:23;2.97;;;2.03;;
1603;SDS011;795;49.296;11.348;2023-03-23T03:09:02;3.50;;;2.37;;
1603;SDS011;795;49.296;11.348;2023-03-23T03:11:48;3.30;;;2.70;;
1603;SDS011;795;49.296;11.348;2023-03-23T03:14:34;5.70;;;2.10;;
1603;SDS011;795;49.296;11.348;2023-03-23T03:17:23;3.37;;;2.50;;
1603;SDS011;795;49.296;11.348;2023-03-23T03:19:57;2.77;;;1.97;;
1603;SDS011;795;49.296;11.348;2023-03-23T03:22:35;2.60;;;2.27;;
1603;SDS011;795;49.296;11.348;2023-03-23T03:25:08;2.47;;;2.27;;
1603;SDS011;795;49.296;11.348;2023-03-23T03:27:40;2.63;;;2.43;;
1603;SDS011;795;49.296;11.348;2023-03-23T03:30:12;3.87;;;2.67;;
1603;SDS011;795;49.296;11.348;2023-03-23T03:32:48;3.40;;;2.70;;
1603;SDS011;795;49.296;11.348;2023-03-23T03:35:19;2.80;;;2.60;;
1603;SDS011;795;49.296;11.348;2023-03-23T03:37:48;2.50;;;2.40;;
1603;SDS011;795;49.296;11.348;2023-03-23T03:40:16;2.70;;;2.50;;
1603;SDS011;795;49.296;11.348;2023-03-23T03:42:46;2.23;;;2.13;;
1603;SDS011;795;49.296;11.348;2023-03-23T03:45:14;2.50;;;2.30;;
1603;SDS011;795;49.296;11.348;2023-03-23T03:47:44;2.67;;;2.47;;
1603;SDS011;795;49.296;11.348;2023-03-23T03:50:11;2.83;;;2.60;;
1603;SDS011;795;49.296;11.348;2023-03-23T03:52:38;2.43;;;2.23;;
1603;SDS011;795;49.296;11.348;2023-03-23T03:55:05;2.40;;;2.20;;
1603;SDS011;795;49.296;11.348;2023-03-23T03:57:35;3.03;;;2.43;;
1603;SDS011;795;49.296;11.348;2023-03-23T04:00:01;2.10;;;1.90;;
1603;SDS011;795;49.296;11.348;2023-03-23T04:02:41;2.40;;;2.20;;
1603;SDS011;795;49.296;11.348;2023-03-23T04:05:15;2.40;;;2.07;;
1603;SDS011;795;49.296;11.348;2023-03-23T04:07:44;2.33;;;2.03;;
1603;SDS011;795;49.296;11.348;2023-03-23T04:10:11;2.53;;;2.33;;
1603;SDS011;795;49.296;11.348;2023-03-23T04:12:38;2.30;;;2.10;;
1603;SDS011;795;49.296;11.348;2023-03-23T04:15:04;2.70;;;2.50;;
1603;SDS011;795;49.296;11.348;2023-03-23T04:17:32;2.63;;;2.30;;
1603;SDS011;795;49.296;11.348;2023-03-23T04:20:00;2.80;;;2.50;;
1603;SDS011;795;49.296;11.348;2023-03-23T04:22:33;3.07;;;2.87;;
1603;SDS011;795;49.296;11.348;2023-03-23T04:25:00;2.70;;;2.50;;
1603;SDS011;795;49.296;11.348;2023-03-23T04:27:30;3.77;;;2.50;;
1603;SDS011;795;49.296;11.348;2023-03-23T04:29:58;1.93;;;1.83;;
1603;SDS011;795;49.296;11.348;2023-03-23T04:32:28;2.33;;;2.13;;
1603;SDS011;795;49.296;11.348;2023-03-23T04:34:56;2.27;;;2.13;;
1603;SDS011;795;49.296;11.348;2023-03-23T04:37:26;2.83;;;2.60;;
1603;SDS011;795;49.296;11.348;2023-03-23T04:39:58;3.97;;;2.33;;
1603;SDS011;795;49.296;11.348;2023-03-23T04:42:29;2.60;;;2.40;;
1603;SDS011;795;49.296;11.348;2023-03-23T04:44:57;12.40;;;3.37;;
1603;SDS011;795;49.296;11.348;2023-03-23T04:47:26;3.53;;;3.23;;
1603;SDS011;795;49.296;11.348;2023-03-23T04:49:56;7.00;;;2.50;;
1603;SDS011;795;49.296;11.348;2023-03-23T04:52:23;2.83;;;2.57;;
1603;SDS011;795;49.296;11.348;2023-03-23T04:54:56;2.70;;;2.50;;
1603;SDS011;795;49.296;11.348;2023-03-23T04:57:22;2.80;;;2.60;;
1603;SDS011;795;49.296;11.348;2023-03-23T04:59:48;3.10;;;2.83;;
1603;SDS011;795;49.296;11.348;2023-03-23T05:02:14;2.87;;;2.67;;
1603;SDS011;795;49.296;11.348;2023-03-23T05:04:42;2.40;;;2.20;;
1603;SDS011;795;49.296;11.348;2023-03-23T05:07:08;4.30;;;2.73;;
1603;SDS011;795;49.296;11.348;2023-03-23T05:09:36;2.20;;;2.10;;
1603;SDS011;795;49.296;11.348;2023-03-23T05:12:03;2.83;;;2.53;;
1603;SDS011;795;49.296;11.348;2023-03-23T05:14:35;3.20;;;2.30;;
1603;SDS011;795;49.296;11.348;2023-03-23T05:17:06;2.50;;;2.30;;
1603;SDS011;795;49.296;11.348;2023-03-23T05:19:32;3.07;;;2.77;;
1603;SDS011;795;49.296;11.348;2023-03-23T05:21:59;3.03;;;2.83;;
1603;SDS011;795;49.296;11.348;2023-03-23T05:24:32;2.40;;;2.20;;
1603;SDS011;795;49.296;11.348;2023-03-23T05:26:58;3.43;;;3.13;;
1603;SDS011;795;49.296;11.348;2023-03-23T05:29:25;2.47;;;2.27;;
1603;SDS011;795;49.296;11.348;2023-03-23T05:31:52;3.80;;;2.63;;
1603;SDS011;795;49.296;11.348;2023-03-23T05:34:20;2.70;;;2.33;;
1603;SDS011;795;49.296;11.348;2023-03-23T05:36:46;3.00;;;2.30;;
1603;SDS011;795;49.296;11.348;2023-03-23T05:39:12;3.30;;;2.80;;
1603;SDS011;795;49.296;11.348;2023-03-23T05:41:39;4.20;;;2.60;;
1603;SDS011;795;49.296;11.348;2023-03-23T05:44:05;4.93;;;2.90;;
1603;SDS011;795;49.296;11.348;2023-03-23T05:46:31;3.87;;;3.40;;
1603;SDS011;795;49.296;11.348;2023-03-23T05:48:58;5.93;;;3.43;;
1603;SDS011;795;49.296;11.348;2023-03-23T05:51:24;4.10;;;2.80;;
1603;SDS011;795;49.296;11.348;2023-03-23T05:53:51;3.30;;;3.00;;
1603;SDS011;795;49.296;11.348;2023-03-23T05:56:17;3.20;;;2.90;;
1603;SDS011;795;49.296;11.348;2023-03-23T05:58:43;3.43;;;3.13;;
1603;SDS011;795;49.296;11.348;2023-03-23T06:01:09;3.43;;;2.60;;
1603;SDS011;795;49.296;11.348;2023-03-23T06:03:39;3.03;;;2.83;;
1603;SDS011;795;49.296;11.348;2023-03-23T06:06:05;3.43;;;3.10;;
1603;SDS011;795;49.296;11.348;2023-03-23T06:08:34;3.90;;;3.20;;
1603;SDS011;795;49.296;11.348;2023-03-23T06:11:02;3.60;;;3.30;;
1603;SDS011;795;49.296;11.348;2023-03-23T06:13:29;3.73;;;3.20;;
1603;SDS011;795;49.296;11.348;2023-03-23T06:15:56;3.03;;;2.73;;
1603;SDS011;795;49.296;11.348;2023-03-23T06:18:22;3.90;;;3.60;;
1603;SDS011;795;49.296;11.348;2023-03-23T06:20:49;3.57;;;3.27;;
1603;SDS011;795;49.296;11.348;2023-03-23T06:23:16;3.87;;;3.57;;
1603;SDS011;795;49.296;11.348;2023-03-23T06:25:43;3.33;;;3.10;;
1603;SDS011;795;49.296;11.348;2023-03-23T06:28:09;4.23;;;3.83;;
1603;SDS011;795;49.296;11.348;2023-03-23T06:30:36;4.10;;;3.80;;
1603;SDS011;795;49.296;11.348;2023-03-23T06:33:02;3.87;;;3.47;;
1603;SDS011;795;49.296;11.348;2023-03-23T06:35:30;5.73;;;3.63;;
1603;SDS011;795;49.296;11.348;2023-03-23T06:37:57;4.30;;;3.90;;
1603;SDS011;795;49.296;11.348;2023-03-23T06:40:26;5.37;;;3.67;;
1603;SDS011;795;49.296;11.348;2023-03-23T06:42:54;3.83;;;3.50;;
1603;SDS011;795;49.296;11.348;2023-03-23T06:45:24;4.90;;;3.67;;
1603;SDS011;795;49.296;11.348;2023-03-23T06:47:50;10.70;;;4.20;;
1603;SDS011;795;49.296;11.348;2023-03-23T06:50:17;4.07;;;3.67;;
1603;SDS011;795;49.296;11.348;2023-03-23T06:52:46;3.60;;;3.30;;
1603;SDS011;795;49.296;11.348;2023-03-23T06:55:16;4.50;;;4.10;;
1603;SDS011;795;49.296;11.348;2023-03-23T06:57:43;4.77;;;3.53;;
1603;SDS011;795;49.296;11.348;2023-03-23T07:00:10;3.60;;;3.30;;
1603;SDS011;795;49.296;11.348;2023-03-23T07:02:41;3.60;;;3.30;;
1603;SDS011;795;49.296;11.348;2023-03-23T07:05:09;4.00;;;3.60;;
1603;SDS011;795;49.296;11.348;2023-03-23T07:07:37;4.00;;;3.50;;
1603;SDS011;795;49.296;11.348;2023-03-23T07:10:06;4.87;;;4.37;;
1603;SDS011;795;49.296;11.348;2023-03-23T07:12:35;4.40;;;3.90;;
1603;SDS011;795;49.296;11.348;2023-03-23T07:15:02;4.03;;;3.63;;
1603;SDS011;795;49.296;11.348;2023-03-23T07:17:30;4.13;;;3.73;;
1603;SDS011;795;49.296;11.348;2023-03-23T07:19:57;5.87;;;3.80;;
1603;SDS011;795;49.296;11.348;2023-03-23T07:22:22;5.40;;;4.30;;
1603;SDS011;795;49.296;11.348;2023-03-23T07:24:48;6.10;;;4.30;;
1603;SDS011;795;49.296;11.348;2023-03-23T07:27:14;4.37;;;3.70;;
1603;SDS011;795;49.296;11.348;2023-03-23T07:29:41;4.07;;;3.30;;
1603;SDS011;795;49.296;11.348;2023-03-23T07:32:08;4.20;;;3.80;;
1603;SDS011;795;49.296;11.348;2023-03-23T07:34:37;4.20;;;3.80;;
1603;SDS011;795;49.296;11.348;2023-03-23T07:37:04;4.37;;;3.97;;
1603;SDS011;795;49.296;11.348;2023-03-23T07:39:31;6.57;;;3.83;;
1603;SDS011;795;49.296;11.348;2023-03-23T07:41:58;5.23;;;4.07;;
1603;SDS011;795;49.296;11.348;2023-03-23T07:44:24;4.13;;;3.73;;
1603;SDS011;795;49.296;11.348;2023-03-23T07:46:51;6.50;;;4.10;;
1603;SDS011;795;49.296;11.348;2023-03-23T07:49:17;3.70;;;3.40;;
1603;SDS011;795;49.296;11.348;2023-03-23T07:51:44;4.60;;;4.07;;
1603;SDS011;795;49.296;11.348;2023-03-23T07:54:11;6.00;;;4.33;;
1603;SDS011;795;49.296;11.348;2023-03-23T07:56:39;4.50;;;4.10;;
1603;SDS011;795;49.296;11.348;2023-03-23T07:59:06;4.13;;;3.77;;
1603;SDS011;795;49.296;11.348;2023-03-23T08:01:33;3.57;;;3.27;;
1603;SDS011;795;49.296;11.348;2023-03-23T08:03:59;4.90;;;3.90;;
1603;SDS011;795;49.296;11.348;2023-03-23T08:06:25;5.47;;;3.57;;
1603;SDS011;795;49.296;11.348;2023-03-23T08:08:52;4.10;;;3.43;;
1603;SDS011;795;49.296;11.348;2023-03-23T08:11:19;4.40;;;3.70;;
1603;SDS011;795;49.296;11.348;2023-03-23T08:13:46;4.40;;;3.93;;
1603;SDS011;795;49.296;11.348;2023-03-23T08:16:12;5.30;;;3.63;;
1603;SDS011;795;49.296;11.348;2023-03-23T08:18:38;4.43;;;4.03;;
1603;SDS011;795;49.296;11.348;2023-03-23T08:21:05;7.47;;;4.40;;
1603;SDS011;795;49.296;11.348;2023-03-23T08:23:35;3.93;;;3.63;;
1603;SDS011;795;49.296;11.348;2023-03-23T08:26:05;6.73;;;4.47;;
1603;SDS011;795;49.296;11.348;2023-03-23T08:28:33;3.53;;;3.23;;
1603;SDS011;795;49.296;11.348;2023-03-23T08:31:05;5.33;;;3.53;;
1603;SDS011;795;49.296;11.348;2023-03-23T08:33:39;5.27;;;3.23;;
1603;SDS011;795;49.296;11.348;2023-03-23T08:36:06;4.90;;;3.93;;
1603;SDS011;795;49.296;11.348;2023-03-23T08:38:34;5.70;;;4.07;;
1603;SDS011;795;49.296;11.348;2023-03-23T08:41:01;4.60;;;3.83;;
1603;SDS011;795;49.296;11.348;2023-03-23T08:43:31;3.53;;;3.23;;
1603;SDS011;795;49.296;11.348;2023-03-23T08:45:58;4.30;;;3.90;;
1603;SDS011;795;49.296;11.348;2023-03-23T08:48:24;3.83;;;3.53;;
1603;SDS011;795;49.296;11.348;2023-03-23T08:50:50;4.63;;;4.20;;
1603;SDS011;795;49.296;11.348;2023-03-23T08:53:17;4.40;;;3.53;;
1603;SDS011;795;49.296;11.348;2023-03-23T08:55:46;5.30;;;3.93;;
1603;SDS011;795;49.296;11.348;2023-03-23T08:58:14;5.00;;;4.10;;
1603;SDS011;795;49.296;11.348;2023-03-23T09:03:37;4.30;;;3.40;;
1603;SDS011;795;49.296;11.348;2023-03-23T09:06:05;3.97;;;3.57;;
1603;SDS011;795;49.296;11.348;2023-03-23T09:08:34;4.40;;;3.37;;
1603;SDS011;795;49.296;11.348;2023-03-23T09:11:01;4.90;;;3.73;;
1603;SDS011;795;49.296;11.348;2023-03-23T09:13:32;3.77;;;3.47;;
1603;SDS011;795;49.296;11.348;2023-03-23T09:15:59;4.10;;;3.70;;
1603;SDS011;795;49.296;11.348;2023-03-23T09:18:25;4.03;;;3.50;;
1603;SDS011;795;49.296;11.348;2023-03-23T09:20:51;4.40;;;3.50;;
1603;SDS011;795;49.296;11.348;2023-03-23T09:23:19;4.37;;;3.87;;
1603;SDS011;795;49.296;11.348;2023-03-23T09:25:46;4.30;;;3.80;;
1603;SDS011;795;49.296;11.348;2023-03-23T09:28:14;3.60;;;3.30;;
1603;SDS011;795;49.296;11.348;2023-03-23T09:30:40;3.90;;;3.53;;
1603;SDS011;795;49.296;11.348;2023-03-23T09:33:07;3.43;;;3.13;;
1603;SDS011;795;49.296;11.348;2023-03-23T09:35:34;3.40;;;3.10;;
1603;SDS011;795;49.296;11.348;2023-03-23T09:38:03;3.10;;;2.90;;
1603;SDS011;795;49.296;11.348;2023-03-23T09:43:59;3.10;;;2.90;;
1603;SDS011;795;49.296;11.348;2023-03-23T09:50:15;2.97;;;2.77;;
1603;SDS011;795;49.296;11.348;2023-03-23T09:52:56;3.30;;;3.00;;
1603;SDS011;795;49.296;11.348;2023-03-23T09:55:34;3.07;;;2.87;;
1603;SDS011;795;49.296;11.348;2023-03-23T09:58:05;3.17;;;2.77;;
1603;SDS011;795;49.296;11.348;2023-03-23T10:00:57;3.97;;;3.00;;
1603;SDS011;795;49.296;11.348;2023-03-23T10:03:44;3.13;;;2.83;;
1603;SDS011;795;49.296;11.348;2023-03-23T10:06:13;2.80;;;2.60;;
1603;SDS011;795;49.296;11.348;2023-03-23T10:08:44;3.50;;;3.03;;
1603;SDS011;795;49.296;11.348;2023-03-23T10:14:39;3.20;;;2.90;;
1603;SDS011;795;49.296;11.348;2023-03-23T10:17:29;5.50;;;2.53;;
1603;SDS011;795;49.296;11.348;2023-03-23T10:25:49;3.60;;;2.90;;
1603;SDS011;795;49.296;11.348;2023-03-23T10:28:56;3.33;;;3.03;;
1603;SDS011;795;49.296;11.348;2023-03-23T10:31:35;6.03;;;2.87;;
1603;SDS011;795;49.296;11.348;2023-03-23T10:34:10;2.30;;;2.10;;
1603;SDS011;795;49.296;11.348;2023-03-23T10:37:21;2.93;;;2.63;;
1603;SDS011;795;49.296;11.348;2023-03-23T10:39:56;2.97;;;2.67;;
1603;SDS011;795;49.296;11.348;2023-03-23T10:44:58;2.60;;;2.40;;
1603;SDS011;795;49.296;11.348;2023-03-23T10:47:58;2.37;;;2.17;;
1603;SDS011;795;49.296;11.348;2023-03-23T10:50:41;4.17;;;2.40;;
1603;SDS011;795;49.296;11.348;2023-03-23T10:53:20;2.40;;;2.20;;
1603;SDS011;795;49.296;11.348;2023-03-23T10:56:26;2.67;;;2.47;;
1603;SDS011;795;49.296;11.348;2023-03-23T11:02:00;10.50;;;2.60;;
1603;SDS011;795;49.296;11.348;2023-03-23T11:04:39;2.50;;;2.30;;
1603;SDS011;795;49.296;11.348;2023-03-23T11:07:20;3.80;;;2.20;;
1603;SDS011;795;49.296;11.348;2023-03-23T11:09:59;2.50;;;2.20;;
1603;SDS011;795;49.296;11.348;2023-03-23T11:12:51;2.70;;;2.50;;
1603;SDS011;795;49.296;11.348;2023-03-23T11:18:18;2.37;;;1.80;;
1603;SDS011;795;49.296;11.348;2023-03-23T11:21:03;2.20;;;2.00;;
1603;SDS011;795;49.296;11.348;2023-03-23T11:23:38;2.20;;;2.10;;
1603;SDS011;795;49.296;11.348;2023-03-23T11:26:20;2.70;;;1.80;;
1603;SDS011;795;49.296;11.348;2023-03-23T11:29:04;2.17;;;1.80;;
1603;SDS011;795;49.296;11.348;2023-03-23T11:31:50;4.37;;;1.67;;
1603;SDS011;795;49.296;11.348;2023-03-23T11:34:39;2.40;;;2.20;;
1603;SDS011;795;49.296;11.348;2023-03-23T11:37:19;2.20;;;2.10;;
1603;SDS011;795;49.296;11.348;2023-03-23T11:42:44;2.53;;;2.10;;
1603;SDS011;795;49.296;11.348;2023-03-23T11:45:31;2.27;;;2.10;;
1603;SDS011;795;49.296;11.348;2023-03-23T11:54:28;4.10;;;2.43;;
1603;SDS011;795;49.296;11.348;2023-03-23T11:57:06;1.97;;;1.87;;
1603;SDS011;795;49.296;11.348;2023-03-23T11:59:39;2.47;;;2.27;;
1603;SDS011;795;49.296;11.348;2023-03-23T12:07:33;2.80;;;2.60;;
1603;SDS011;795;49.296;11.348;2023-03-23T12:10:22;2.07;;;1.97;;
1603;SDS011;795;49.296;11.348;2023-03-23T12:16:20;2.33;;;2.03;;
1603;SDS011;795;49.296;11.348;2023-03-23T12:22:46;2.10;;;1.90;;
1603;SDS011;795;49.296;11.348;2023-03-23T12:38:31;2.30;;;2.10;;
1603;SDS011;795;49.296;11.348;2023-03-23T12:41:41;1.80;;;1.70;;
1603;SDS011;795;49.296;11.348;2023-03-23T12:44:48;3.53;;;2.13;;
1603;SDS011;795;49.296;11.348;2023-03-23T12:53:57;2.00;;;1.80;;
1603;SDS011;795;49.296;11.348;2023-03-23T12:56:59;4.40;;;2.80;;
1603;SDS011;795;49.296;11.348;2023-03-23T12:59:49;2.30;;;2.10;;
1603;SDS011;795;49.296;11.348;2023-03-23T13:02:39;1.87;;;1.70;;
1603;SDS011;795;49.296;11.348;2023-03-23T13:05:47;2.00;;;1.90;;
1603;SDS011;795;49.296;11.348;2023-03-23T13:08:27;1.70;;;1.60;;
1603;SDS011;795;49.296;11.348;2023-03-23T13:11:03;2.00;;;1.90;;
1603;SDS011;795;49.296;11.348;2023-03-23T13:13:51;3.20;;;2.57;;
1603;SDS011;795;49.296;11.348;2023-03-23T13:17:16;6.00;;;2.30;;
1603;SDS011;795;49.296;11.348;2023-03-23T13:20:05;4.20;;;2.20;;
1603;SDS011;795;49.296;11.348;2023-03-23T13:23:21;1.70;;;1.60;;
1603;SDS011;795;49.296;11.348;2023-03-23T13:26:08;1.80;;;1.70;;
1603;SDS011;795;49.296;11.348;2023-03-23T13:31:44;1.90;;;1.70;;
1603;SDS011;795;49.296;11.348;2023-03-23T13:36:58;1.80;;;1.70;;
1603;SDS011;795;49.296;11.348;2023-03-23T13:42:28;2.40;;;2.20;;
1603;SDS011;795;49.296;11.348;2023-03-23T13:45:07;3.37;;;2.07;;
1603;SDS011;795;49.296;11.348;2023-03-23T13:50:59;2.43;;;2.23;;
1603;SDS011;795;49.296;11.348;2023-03-23T13:59:14;4.97;;;2.30;;
1603;SDS011;795;49.296;11.348;2023-03-23T14:05:35;2.37;;;1.83;;
1603;SDS011;795;49.296;11.348;2023-03-23T14:10:49;2.13;;;2.00;;
1603;SDS011;795;49.296;11.348;2023-03-23T14:13:31;2.90;;;2.70;;
1603;SDS011;795;49.296;11.348;2023-03-23T14:16:25;2.73;;;2.53;;
1603;SDS011;795;49.296;11.348;2023-03-23T14:19:01;2.10;;;2.00;;
1603;SDS011;795;49.296;11.348;2023-03-23T14:21:41;2.63;;;2.43;;
1603;SDS011;795;49.296;11.348;2023-03-23T14:24:27;1.77;;;1.63;;
1603;SDS011;795;49.296;11.348;2023-03-23T14:29:35;2.37;;;2.20;;
1603;SDS011;795;49.296;11.348;2023-03-23T14:32:01;2.60;;;2.40;;
1603;SDS011;795;49.296;11.348;2023-03-23T14:34:33;3.17;;;2.87;;
1603;SDS011;795;49.296;11.348;2023-03-23T14:37:00;2.83;;;2.57;;
1603;SDS011;795;49.296;11.348;2023-03-23T14:39:29;2.30;;;2.03;;
1603;SDS011;795;49.296;11.348;2023-03-23T14:42:05;2.37;;;2.17;;
1603;SDS011;795;49.296;11.348;2023-03-23T14:44:43;2.30;;;2.03;;
1603;SDS011;795;49.296;11.348;2023-03-23T14:47:17;2.50;;;2.30;;
1603;SDS011;795;49.296;11.348;2023-03-23T14:49:55;3.00;;;1.90;;
1603;SDS011;795;49.296;11.348;2023-03-23T14:52:26;2.13;;;1.93;;
1603;SDS011;795;49.296;11.348;2023-03-23T14:55:09;2.03;;;1.93;;
1603;SDS011;795;49.296;11.348;2023-03-23T14:57:46;2.53;;;2.33;;
1603;SDS011;795;49.296;11.348;2023-03-23T15:00:20;2.73;;;2.53;;
1603;SDS011;795;49.296;11.348;2023-03-23T15:02:54;2.33;;;2.20;;
1603;SDS011;795;49.296;11.348;2023-03-23T15:05:29;2.17;;;2.00;;
1603;SDS011;795;49.296;11.348;2023-03-23T15:08:11;3.10;;;2.80;;
1603;SDS011;795;49.296;11.348;2023-03-23T15:10:55;2.10;;;2.00;;
1603;SDS011;795;49.296;11.348;2023-03-23T15:13:42;2.27;;;1.70;;
1603;SDS011;795;49.296;11.348;2023-03-23T15:16:19;4.03;;;2.20;;
1603;SDS011;795;49.296;11.348;2023-03-23T15:18:55;3.23;;;2.93;;
1603;SDS011;795;49.296;11.348;2023-03-23T15:24:21;2.03;;;1.83;;
1603;SDS011;795;49.296;11.348;2023-03-23T15:30:00;2.37;;;2.13;;
1603;SDS011;795;49.296;11.348;2023-03-23T15:32:51;3.20;;;2.00;;
1603;SDS011;795;49.296;11.348;2023-03-23T15:35:39;2.27;;;2.17;;
1603;SDS011;795;49.296;11.348;2023-03-23T15:38:34;2.80;;;2.50;;
1603;SDS011;795;49.296;11.348;2023-03-23T15:41:02;2.37;;;1.97;;
1603;SDS011;795;49.296;11.348;2023-03-23T15:43:52;3.10;;;2.10;;
1603;SDS011;795;49.296;11.348;2023-03-23T15:46:27;2.47;;;2.20;;
1603;SDS011;795;49.296;11.348;2023-03-23T15:51:24;9.77;;;5.00;;
1603;SDS011;795;49.296;11.348;2023-03-23T15:53:57;2.50;;;2.30;;
1603;SDS011;795;49.296;11.348;2023-03-23T15:56:23;2.37;;;2.17;;
1603;SDS011;795;49.296;11.348;2023-03-23T15:58:51;4.00;;;3.10;;
1603;SDS011;795;49.296;11.348;2023-03-23T16:06:41;5.93;;;3.63;;
1603;SDS011;795;49.296;11.348;2023-03-23T16:09:14;4.03;;;3.30;;
1603;SDS011;795;49.296;11.348;2023-03-23T16:11:45;3.20;;;2.43;;
1603;SDS011;795;49.296;11.348;2023-03-23T16:14:13;2.83;;;1.80;;
1603;SDS011;795;49.296;11.348;2023-03-23T16:16:44;3.40;;;2.10;;
1603;SDS011;795;49.296;11.348;2023-03-23T16:19:16;2.93;;;2.10;;
1603;SDS011;795;49.296;11.348;2023-03-23T16:21:45;1.60;;;1.50;;
1603;SDS011;795;49.296;11.348;2023-03-23T16:24:12;2.50;;;2.30;;
1603;SDS011;795;49.296;11.348;2023-03-23T16:26:39;2.07;;;1.87;;
1603;SDS011;795;49.296;11.348;2023-03-23T16:29:13;2.70;;;2.33;;
1603;SDS011;795;49.296;11.348;2023-03-23T16:32:02;2.43;;;2.23;;
1603;SDS011;795;49.296;11.348;2023-03-23T16:34:29;3.80;;;2.20;;
1603;SDS011;795;49.296;11.348;2023-03-23T16:36:58;3.20;;;2.23;;
1603;SDS011;795;49.296;11.348;2023-03-23T16:39:25;2.50;;;2.30;;
1603;SDS011;795;49.296;11.348;2023-03-23T16:41:53;4.80;;;2.30;;
1603;SDS011;795;49.296;11.348;2023-03-23T16:44:20;2.70;;;2.50;;
1603;SDS011;795;49.296;11.348;2023-03-23T16:46:47;2.53;;;2.20;;
1603;SDS011;795;49.296;11.348;2023-03-23T16:49:14;2.53;;;2.33;;
1603;SDS011;795;49.296;11.348;2023-03-23T16:51:41;3.70;;;2.60;;
1603;SDS011;795;49.296;11.348;2023-03-23T16:54:08;3.10;;;2.67;;
1603;SDS011;795;49.296;11.348;2023-03-23T16:56:36;3.00;;;2.10;;
1603;SDS011;795;49.296;11.348;2023-03-23T16:59:03;2.90;;;2.60;;
1603;SDS011;795;49.296;11.348;2023-03-23T17:01:30;2.67;;;2.47;;
1603;SDS011;795;49.296;11.348;2023-03-23T17:03:57;3.60;;;2.70;;
1603;SDS011;795;49.296;11.348;2023-03-23T17:06:24;3.13;;;2.83;;
1603;SDS011;795;49.296;11.348;2023-03-23T17:08:51;3.47;;;2.70;;
1603;SDS011;795;49.296;11.348;2023-03-23T17:11:18;4.53;;;2.70;;
1603;SDS011;795;49.296;11.348;2023-03-23T17:13:45;7.20;;;3.50;;
1603;SDS011;795;49.296;11.348;2023-03-23T17:16:14;5.27;;;3.20;;
1603;SDS011;795;49.296;11.348;2023-03-23T17:18:41;4.23;;;3.83;;
1603;SDS011;795;49.296;11.348;2023-03-23T17:21:08;3.83;;;3.30;;
1603;SDS011;795;49.296;11.348;2023-03-23T17:23:35;8.30;;;3.50;;
1603;SDS011;795;49.296;11.348;2023-03-23T17:26:02;4.73;;;3.43;;
1603;SDS011;795;49.296;11.348;2023-03-23T17:28:29;3.70;;;2.70;;
1603;SDS011;795;49.296;11.348;2023-03-23T17:30:56;3.63;;;2.57;;
1603;SDS011;795;49.296;11.348;2023-03-23T17:33:23;6.70;;;2.40;;
1603;SDS011;795;49.296;11.348;2023-03-23T17:35:50;3.27;;;2.93;;
1603;SDS011;795;49.296;11.348;2023-03-23T17:38:17;4.57;;;3.10;;
1603;SDS011;795;49.296;11.348;2023-03-23T17:40:44;3.13;;;2.93;;
1603;SDS011;795;49.296;11.348;2023-03-23T17:43:11;3.90;;;3.17;;
1603;SDS011;795;49.296;11.348;2023-03-23T17:45:39;4.20;;;2.80;;
1603;SDS011;795;49.296;11.348;2023-03-23T17:48:08;4.00;;;3.60;;
1603;SDS011;795;49.296;11.348;2023-03-23T17:50:35;5.50;;;3.37;;
1603;SDS011;795;49.296;11.348;2023-03-23T17:53:02;4.93;;;4.53;;